createdAt,value
2019-01-12T00:02:15.777Z,84.47
2019-01-12T00:04:43.749Z,84.37
2019-01-12T00:07:11.379Z,84.44
2019-01-12T00:09:39.273Z,84.17
2019-01-12T00:12:07.250Z,84.33
2019-01-12T00:14:34.884Z,84.46
2019-01-12T00:17:02.515Z,84.38
2019-01-12T00:19:30.148Z,84.02
2019-01-12T00:21:58.170Z,84.34
2019-01-12T00:24:31.484Z,83.98
2019-01-12T00:26:56.619Z,84.25
2019-01-12T00:29:24.571Z,84.41
2019-01-12T00:31:52.206Z,84.42
2019-01-12T00:34:20.101Z,84.52
2019-01-12T00:36:47.739Z,84.65
2019-01-12T00:39:15.629Z,84.40
2019-01-12T00:41:43.615Z,83.43
2019-01-12T00:44:11.246Z,83.80
2019-01-12T00:46:39.234Z,84.32
2019-01-12T00:49:06.858Z,84.04
2019-01-12T00:51:34.764Z,84.16
2019-01-12T00:54:02.729Z,83.84
2019-01-12T00:56:30.698Z,83.98
2019-01-12T00:58:58.337Z,84.27
2019-01-12T01:01:26.232Z,83.71
2019-01-12T01:03:54.201Z,83.50
2019-01-12T01:06:21.840Z,83.51
2019-01-12T01:08:49.732Z,83.50
2019-01-12T01:11:17.704Z,83.32
2019-01-12T01:13:45.667Z,83.68
2019-01-12T01:16:13.636Z,83.07
2019-01-12T01:18:41.267Z,82.92
2019-01-12T01:21:09.174Z,82.94
2019-01-12T01:23:37.138Z,83.08
2019-01-12T01:26:04.783Z,82.90
2019-01-12T01:28:32.667Z,82.35
2019-01-12T01:31:00.655Z,82.54
2019-01-12T01:33:28.300Z,82.59
2019-01-12T01:35:56.267Z,82.60
2019-01-12T01:38:23.892Z,82.71
2019-01-12T01:40:51.804Z,82.78
2019-01-12T01:43:19.769Z,82.35
2019-01-12T01:45:47.739Z,82.67
2019-01-12T01:48:15.703Z,82.14
2019-01-12T01:50:43.353Z,82.02
2019-01-12T01:53:11.236Z,82.07
2019-01-12T01:55:38.875Z,82.05
2019-01-12T01:58:08.197Z,82.42
2019-01-12T02:00:36.169Z,82.36
2019-01-12T02:03:03.805Z,82.24
2019-01-12T02:05:31.702Z,82.43
2019-01-12T02:07:59.690Z,82.52
2019-01-12T02:10:27.638Z,82.45
2019-01-12T02:12:55.611Z,82.77
2019-01-12T02:15:23.237Z,82.74
2019-01-12T02:17:51.138Z,82.57
2019-01-12T02:20:19.108Z,82.66
2019-01-12T02:22:47.094Z,82.61
2019-01-12T02:25:15.051Z,82.65
2019-01-12T02:27:43.015Z,82.36
2019-01-12T02:30:10.647Z,82.58
2019-01-12T02:32:38.564Z,82.76
2019-01-12T02:35:06.549Z,83.04
2019-01-12T02:37:34.250Z,82.86
2019-01-12T02:40:01.871Z,82.55
2019-01-12T02:42:29.808Z,82.52
2019-01-12T02:44:57.785Z,82.66
2019-01-12T02:47:25.767Z,82.42
2019-01-12T02:49:53.719Z,82.38
2019-01-12T02:52:21.688Z,82.40
2019-01-12T02:54:49.652Z,82.34
2019-01-12T02:57:17.623Z,82.62
2019-01-12T02:59:45.595Z,82.40
2019-01-12T03:02:13.569Z,82.92
2019-01-12T03:04:41.538Z,82.84
2019-01-12T03:07:09.505Z,82.80
2019-01-12T03:09:37.140Z,82.67
2019-01-12T03:12:05.033Z,82.48
2019-01-12T03:14:33.007Z,82.45
2019-01-12T03:17:00.976Z,82.46
2019-01-12T03:19:28.615Z,82.59
2019-01-12T03:21:56.608Z,82.14
2019-01-12T03:24:24.575Z,81.90
2019-01-12T03:26:52.217Z,81.35
2019-01-12T03:29:20.105Z,81.19
2019-01-12T03:31:48.099Z,80.94
2019-01-12T03:34:16.018Z,80.87
2019-01-12T03:36:43.654Z,80.75
2019-01-12T03:39:11.580Z,80.98
2019-01-12T03:41:39.219Z,81.26
2019-01-12T03:44:07.106Z,81.76
2019-01-12T03:46:35.074Z,81.61
2019-01-12T03:49:03.046Z,82.02
2019-01-12T03:51:31.016Z,82.37
2019-01-12T03:53:58.639Z,82.62
2019-01-12T03:56:26.544Z,82.97
2019-01-12T03:58:54.529Z,83.22
2019-01-12T04:01:22.480Z,83.40
2019-01-12T04:03:50.421Z,83.69
2019-01-12T04:06:18.326Z,84.17
2019-01-12T04:08:46.290Z,84.23
2019-01-12T04:11:14.257Z,84.62
2019-01-12T04:13:42.222Z,84.46
2019-01-12T04:16:10.200Z,84.96
2019-01-12T04:18:38.164Z,84.98
2019-01-12T04:21:05.805Z,85.17
2019-01-12T04:23:33.436Z,85.15
2019-01-12T04:26:01.359Z,84.80
2019-01-12T04:28:28.999Z,84.67
2019-01-12T04:30:56.908Z,84.63
2019-01-12T04:33:24.542Z,84.04
2019-01-12T04:35:53.038Z,84.24
2019-01-12T04:38:21.000Z,84.04
2019-01-12T04:40:48.628Z,84.04
2019-01-12T04:43:16.533Z,84.40
2019-01-12T04:45:44.503Z,84.46
2019-01-12T04:48:12.467Z,85.05
2019-01-12T04:50:40.441Z,85.50
2019-01-12T04:53:08.416Z,85.91
2019-01-12T04:55:42.021Z,86.02
2019-01-12T04:58:09.998Z,86.01
2019-01-12T05:00:38.277Z,86.27
2019-01-12T05:03:06.228Z,86.26
2019-01-12T05:05:33.873Z,86.28
2019-01-12T05:08:02.064Z,86.30
2019-01-12T05:10:29.697Z,85.91
2019-01-12T05:12:57.338Z,85.33
2019-01-12T05:15:24.974Z,85.39
2019-01-12T05:17:52.923Z,84.59
2019-01-12T05:20:20.889Z,85.01
2019-01-12T05:22:48.528Z,84.56
2019-01-12T05:25:16.159Z,85.02
2019-01-12T05:27:44.088Z,85.27
2019-01-12T05:30:12.052Z,85.06
2019-01-12T05:32:39.687Z,85.24
2019-01-12T05:35:07.317Z,85.16
2019-01-12T05:37:35.247Z,85.21
2019-01-12T05:40:03.213Z,85.17
2019-01-12T05:42:30.855Z,85.03
2019-01-12T05:44:58.740Z,84.52
2019-01-12T05:47:26.708Z,84.38
2019-01-12T05:49:54.359Z,83.92
2019-01-12T05:52:22.245Z,84.05
2019-01-12T05:54:49.887Z,83.58
2019-01-12T05:57:17.876Z,84.05
2019-01-12T05:59:45.860Z,84.25
2019-01-12T06:02:13.496Z,84.59
2019-01-12T06:04:41.472Z,84.25
2019-01-12T06:07:09.445Z,84.71
2019-01-12T06:09:37.416Z,84.22
2019-01-12T06:12:05.378Z,83.74
2019-01-12T06:14:33.367Z,83.56
2019-01-12T06:17:01.343Z,83.53
2019-01-12T06:19:29.293Z,83.29
2019-01-12T06:21:57.268Z,83.01
2019-01-12T06:24:25.239Z,82.44
2019-01-12T06:26:53.112Z,82.24
2019-01-12T06:29:20.752Z,82.15
2019-01-12T06:31:48.728Z,82.74
2019-01-12T06:34:16.370Z,82.69
2019-01-12T06:36:43.995Z,83.14
2019-01-12T06:39:11.631Z,82.37
2019-01-12T06:41:39.267Z,82.28
2019-01-12T06:44:06.902Z,82.05
2019-01-12T06:46:34.803Z,82.26
2019-01-12T06:49:02.782Z,83.04
2019-01-12T06:51:30.744Z,82.41
2019-01-12T06:53:58.386Z,82.71
2019-01-12T06:56:26.280Z,82.93
2019-01-12T06:58:54.243Z,82.73
2019-01-12T07:01:21.878Z,82.68
2019-01-12T07:03:49.512Z,82.67
2019-01-12T07:06:17.435Z,82.94
2019-01-12T07:08:45.406Z,82.88
2019-01-12T07:11:13.896Z,83.09
2019-01-12T07:13:41.857Z,83.13
2019-01-12T07:16:09.849Z,83.39
2019-01-12T07:18:37.797Z,83.08
2019-01-12T07:21:05.429Z,82.98
2019-01-12T07:23:33.327Z,83.47
2019-01-12T07:26:00.955Z,83.97
2019-01-12T07:28:28.857Z,83.52
2019-01-12T07:30:56.823Z,83.51
2019-01-12T07:33:24.795Z,83.86
2019-01-12T07:35:52.769Z,83.92
2019-01-12T07:38:20.732Z,84.15
2019-01-12T07:40:48.702Z,84.47
2019-01-12T07:43:16.680Z,84.48
2019-01-12T07:45:44.646Z,85.20
2019-01-12T07:48:12.610Z,85.12
2019-01-12T07:50:40.560Z,85.29
2019-01-12T07:53:08.448Z,85.57
2019-01-12T07:55:36.424Z,85.15
2019-01-12T07:58:04.068Z,85.16
2019-01-12T08:00:32.054Z,85.65
2019-01-12T08:03:00.020Z,85.70
2019-01-12T08:05:27.992Z,85.96
2019-01-12T08:07:55.977Z,86.45
2019-01-12T08:10:23.589Z,86.04
2019-01-12T08:12:51.218Z,85.91
2019-01-12T08:15:19.151Z,86.24
2019-01-12T08:17:47.122Z,85.90
2019-01-12T08:20:15.090Z,85.85
2019-01-12T08:22:43.063Z,86.43
2019-01-12T08:25:11.040Z,86.67
2019-01-12T08:27:38.999Z,86.78
2019-01-12T08:30:06.965Z,86.79
2019-01-12T08:32:34.605Z,86.56
2019-01-12T08:35:02.518Z,86.21
2019-01-12T08:37:30.139Z,86.30
2019-01-12T08:39:58.029Z,85.06
2019-01-12T08:42:27.140Z,85.46
2019-01-12T08:44:54.824Z,85.81
2019-01-12T08:47:22.760Z,85.36
2019-01-12T08:49:50.726Z,85.22
2019-01-12T08:52:18.361Z,85.10
2019-01-12T08:54:46.364Z,85.00
2019-01-12T08:57:14.329Z,85.48
2019-01-12T08:59:42.320Z,84.85
2019-01-12T09:02:10.264Z,85.00
2019-01-12T09:04:43.438Z,84.96
2019-01-12T09:07:07.565Z,85.19
2019-01-12T09:09:35.509Z,86.06
2019-01-12T09:12:03.476Z,84.98
2019-01-12T09:14:31.504Z,84.33
2019-01-12T09:16:59.421Z,85.02
2019-01-12T09:19:27.389Z,84.79
2019-01-12T09:21:55.355Z,84.75
2019-01-12T09:24:22.993Z,84.05
2019-01-12T09:26:50.887Z,84.57
2019-01-12T09:29:18.857Z,84.14
2019-01-12T09:31:46.828Z,84.38
2019-01-12T09:34:14.798Z,83.98
2019-01-12T09:36:42.814Z,83.77
2019-01-12T09:39:10.737Z,83.71
2019-01-12T09:41:38.708Z,83.21
2019-01-12T09:44:06.670Z,84.15
2019-01-12T09:46:34.299Z,83.97
2019-01-12T09:49:02.309Z,84.36
2019-01-12T09:51:29.947Z,84.14
2019-01-12T09:53:58.256Z,83.83
2019-01-12T09:56:25.929Z,83.48
2019-01-12T09:58:53.590Z,83.24
2019-01-12T10:01:21.227Z,83.14
2019-01-12T10:03:48.877Z,82.51
2019-01-12T10:06:16.759Z,82.91
2019-01-12T10:08:44.734Z,82.60
2019-01-12T10:11:12.699Z,82.34
2019-01-12T10:13:40.674Z,82.37
2019-01-12T10:16:08.642Z,81.73
2019-01-12T10:18:36.678Z,82.50
2019-01-12T10:21:04.507Z,81.50
2019-01-12T10:23:32.446Z,81.34
2019-01-12T10:26:00.413Z,80.48
2019-01-12T10:28:28.390Z,80.80
2019-01-12T10:30:56.457Z,81.26
2019-01-12T10:33:24.089Z,81.04
2019-01-12T10:35:51.722Z,80.73
2019-01-12T10:38:19.353Z,80.67
2019-01-12T10:40:47.321Z,81.06
2019-01-12T10:43:15.280Z,80.13
2019-01-12T10:45:43.250Z,79.87
2019-01-12T10:48:11.528Z,80.16
2019-01-12T10:50:40.048Z,80.08
2019-01-12T10:53:07.762Z,79.51
2019-01-12T10:55:39.432Z,80.37
2019-01-12T10:58:07.421Z,80.38
2019-01-12T11:00:35.055Z,80.70
2019-01-12T11:03:03.035Z,80.31
2019-01-12T11:05:30.676Z,80.74
2019-01-12T11:07:58.317Z,81.12
2019-01-12T11:10:25.951Z,80.35
2019-01-12T11:12:53.883Z,80.42
2019-01-12T11:15:21.853Z,80.78
2019-01-12T11:17:49.493Z,79.78
2019-01-12T11:20:17.384Z,80.16
2019-01-12T11:22:45.357Z,80.04
2019-01-12T11:25:13.323Z,80.51
2019-01-12T11:27:41.296Z,79.92
2019-01-12T11:30:09.102Z,80.02
2019-01-12T11:32:37.357Z,79.71
2019-01-12T11:35:05.314Z,79.31
2019-01-12T11:37:33.274Z,79.31
2019-01-12T11:40:00.909Z,78.94
2019-01-12T11:42:28.810Z,79.57
2019-01-12T11:44:56.781Z,78.98
2019-01-12T11:47:24.406Z,79.36
2019-01-12T11:49:52.304Z,79.39
2019-01-12T11:52:20.273Z,79.20
2019-01-12T11:54:48.247Z,78.25
2019-01-12T11:57:19.364Z,78.20
2019-01-12T11:59:45.512Z,77.68
2019-01-12T12:02:13.377Z,77.89
2019-01-12T12:04:41.013Z,78.04
2019-01-12T12:07:08.635Z,77.53
2019-01-12T12:09:36.575Z,77.75
2019-01-12T12:12:04.542Z,77.29
2019-01-12T12:14:32.512Z,77.98
2019-01-12T12:17:00.480Z,77.96
2019-01-12T12:19:28.092Z,77.64
2019-01-12T12:21:56.009Z,77.10
2019-01-12T12:24:23.878Z,77.05
2019-01-12T12:26:51.868Z,77.95
2019-01-12T12:29:19.488Z,78.01
2019-01-12T12:31:47.115Z,76.97
2019-01-12T12:34:14.743Z,77.03
2019-01-12T12:36:42.804Z,76.66
2019-01-12T12:39:10.775Z,77.24
2019-01-12T12:41:38.408Z,76.86
2019-01-12T12:44:06.304Z,76.98
2019-01-12T12:46:34.269Z,77.03
2019-01-12T12:49:02.244Z,77.56
2019-01-12T12:51:29.870Z,77.87
2019-01-12T12:53:57.786Z,78.85
2019-01-12T12:56:25.410Z,79.87
2019-01-12T12:58:53.315Z,79.92
2019-01-12T13:01:21.269Z,79.89
2019-01-12T13:03:49.241Z,79.91
2019-01-12T13:06:17.214Z,80.23
2019-01-12T13:08:48.569Z,78.95
2019-01-12T13:11:14.623Z,78.33
2019-01-12T13:13:42.556Z,78.11
2019-01-12T13:16:10.523Z,77.94
2019-01-12T13:18:38.509Z,77.46
2019-01-12T13:21:06.791Z,77.56
2019-01-12T13:23:34.402Z,77.73
2019-01-12T13:26:02.712Z,77.16
2019-01-12T13:28:30.332Z,77.68
2019-01-12T13:30:58.028Z,77.41
2019-01-12T13:33:25.911Z,77.05
2019-01-12T13:35:53.529Z,77.39
2019-01-12T13:38:21.433Z,76.96
2019-01-12T13:40:49.065Z,76.79
2019-01-12T13:43:16.690Z,77.28
2019-01-12T13:45:44.619Z,76.80
2019-01-12T13:48:12.590Z,77.04
2019-01-12T13:50:40.216Z,77.35
2019-01-12T13:53:07.842Z,77.41
2019-01-12T13:55:36.110Z,77.19
2019-01-12T13:58:03.721Z,76.83
2019-01-12T14:00:31.619Z,77.03
2019-01-12T14:02:59.258Z,77.33
2019-01-12T14:05:27.175Z,77.66
2019-01-12T14:07:56.435Z,76.84
2019-01-12T14:10:24.626Z,76.67
2019-01-12T14:12:52.599Z,77.20
2019-01-12T14:15:20.568Z,76.83
2019-01-12T14:17:48.200Z,76.78
2019-01-12T14:20:15.826Z,75.43
2019-01-12T14:22:43.765Z,76.69
2019-01-12T14:25:11.727Z,75.82
2019-01-12T14:27:39.714Z,76.08
2019-01-12T14:30:07.354Z,75.96
2019-01-12T14:32:35.338Z,75.00
2019-01-12T14:35:03.298Z,75.76
2019-01-12T14:37:30.929Z,76.15
2019-01-12T14:39:58.551Z,75.94
2019-01-12T14:42:26.490Z,74.92
2019-01-12T14:44:54.110Z,75.48
2019-01-12T14:47:21.738Z,75.78
2019-01-12T14:49:49.357Z,74.99
2019-01-12T14:52:17.348Z,75.46
2019-01-12T14:54:45.314Z,75.33
2019-01-12T14:57:13.301Z,75.63
2019-01-12T14:59:40.951Z,75.14
2019-01-12T15:02:08.832Z,74.97
2019-01-12T15:04:36.464Z,75.14
2019-01-12T15:07:04.072Z,75.38
2019-01-12T15:09:32.006Z,75.35
2019-01-12T15:11:59.997Z,75.14
2019-01-12T15:14:27.946Z,75.26
2019-01-12T15:16:55.917Z,75.77
2019-01-12T15:19:23.891Z,75.82
2019-01-12T15:21:51.859Z,75.50
2019-01-12T15:24:19.842Z,75.99
2019-01-12T15:26:47.806Z,77.12
2019-01-12T15:29:15.414Z,77.12
2019-01-12T15:31:43.320Z,75.91
2019-01-12T15:34:11.289Z,76.47
2019-01-12T15:36:39.262Z,77.87
2019-01-12T15:39:07.333Z,78.56
2019-01-12T15:41:35.304Z,79.83
2019-01-12T15:44:02.926Z,80.30
2019-01-12T15:46:30.551Z,81.33
2019-01-12T15:48:58.175Z,81.67
2019-01-12T15:51:26.055Z,82.12
2019-01-12T15:53:54.021Z,81.55
2019-01-12T15:56:22.018Z,83.00
2019-01-12T15:58:49.644Z,83.06
2019-01-12T16:01:17.278Z,82.79
2019-01-12T16:03:44.927Z,82.83
2019-01-12T16:06:12.865Z,83.31
2019-01-12T16:08:40.512Z,83.38
2019-01-12T16:11:08.134Z,84.31
2019-01-12T16:13:36.048Z,83.17
2019-01-12T16:16:04.035Z,83.09
2019-01-12T16:18:31.664Z,83.91
2019-01-12T16:20:59.283Z,82.93
2019-01-12T16:23:26.915Z,83.33
2019-01-12T16:25:54.548Z,83.12
2019-01-12T16:28:23.325Z,83.96
2019-01-12T16:30:51.161Z,83.77
2019-01-12T16:33:19.079Z,82.60
2019-01-12T16:35:47.051Z,83.40
2019-01-12T16:38:15.015Z,83.24
2019-01-12T16:40:42.884Z,83.66
2019-01-12T16:43:10.858Z,82.92
2019-01-12T16:45:38.826Z,81.74
2019-01-12T16:48:06.457Z,82.84
2019-01-12T16:50:34.357Z,82.18
2019-01-12T16:53:02.327Z,82.01
2019-01-12T16:55:30.294Z,81.52
2019-01-12T16:57:58.261Z,81.57
2019-01-12T17:00:26.129Z,81.86
2019-01-12T17:02:54.101Z,81.13
2019-01-12T17:05:22.069Z,81.49
2019-01-12T17:07:49.696Z,81.70
2019-01-12T17:10:17.600Z,81.29
2019-01-12T17:12:45.571Z,81.59
2019-01-12T17:15:13.537Z,81.35
2019-01-12T17:17:41.530Z,80.63
2019-01-12T17:20:09.156Z,80.25
2019-01-12T17:22:36.796Z,80.18
2019-01-12T17:25:04.518Z,80.81
2019-01-12T17:27:32.466Z,80.47
2019-01-12T17:30:00.436Z,79.15
2019-01-12T17:32:28.079Z,78.87
2019-01-12T17:34:55.685Z,79.15
2019-01-12T17:37:23.317Z,79.43
2019-01-12T17:39:51.191Z,78.80
2019-01-12T17:42:18.835Z,79.15
2019-01-12T17:44:46.718Z,79.72
2019-01-12T17:47:14.341Z,80.27
2019-01-12T17:49:41.971Z,79.57
2019-01-12T17:52:09.597Z,79.78
2019-01-12T17:54:37.221Z,79.99
2019-01-12T17:57:04.841Z,79.35
2019-01-12T17:59:32.796Z,79.94
2019-01-12T18:02:00.784Z,81.12
2019-01-12T18:04:28.733Z,80.43
2019-01-12T18:06:56.706Z,81.09
2019-01-12T18:09:24.343Z,81.62
2019-01-12T18:11:51.957Z,81.64
2019-01-12T18:14:19.585Z,81.82
2019-01-12T18:16:47.203Z,81.07
2019-01-12T18:19:15.116Z,81.56
2019-01-12T18:21:43.085Z,81.92
2019-01-12T18:24:10.710Z,81.72
2019-01-12T18:26:38.617Z,81.49
2019-01-12T18:29:06.246Z,81.67
2019-01-12T18:31:34.147Z,80.96
2019-01-12T18:34:02.115Z,81.07
2019-01-12T18:36:30.397Z,81.21
2019-01-12T18:38:58.038Z,81.34
2019-01-12T18:41:25.731Z,80.93
2019-01-12T18:43:53.689Z,81.19
2019-01-12T18:46:21.304Z,80.87
2019-01-12T18:48:49.232Z,80.06
2019-01-12T18:51:16.923Z,80.40
2019-01-12T18:53:44.625Z,80.30
2019-01-12T18:56:12.508Z,80.08
2019-01-12T18:58:40.140Z,80.06
2019-01-12T19:01:07.760Z,80.94
2019-01-12T19:03:35.707Z,80.35
2019-01-12T19:06:03.684Z,80.63
2019-01-12T19:08:31.301Z,80.08
2019-01-12T19:10:59.227Z,80.45
2019-01-12T19:13:27.176Z,80.67
2019-01-12T19:15:54.789Z,79.85
2019-01-12T19:18:22.701Z,80.29
2019-01-12T19:20:50.879Z,79.46
2019-01-12T19:23:18.848Z,79.27
2019-01-12T19:25:46.817Z,79.96
2019-01-12T19:28:14.784Z,79.53
2019-01-12T19:30:42.448Z,79.70
2019-01-12T19:33:10.419Z,80.12
2019-01-12T19:35:38.392Z,80.69
2019-01-12T19:38:06.680Z,80.40
2019-01-12T19:40:34.631Z,80.24
2019-01-12T19:43:02.253Z,80.01
2019-01-12T19:45:30.161Z,80.00
2019-01-12T19:47:58.134Z,79.13
2019-01-12T19:50:26.103Z,79.05
2019-01-12T19:52:54.075Z,79.12
2019-01-12T19:55:22.042Z,79.59
2019-01-12T19:57:50.020Z,79.29
2019-01-12T20:00:17.985Z,79.18
2019-01-12T20:02:45.607Z,79.00
2019-01-12T20:05:13.509Z,79.33
2019-01-12T20:07:41.488Z,80.16
2019-01-12T20:10:09.194Z,79.96
2019-01-12T20:12:36.823Z,79.50
2019-01-12T20:15:04.444Z,80.07
2019-01-12T20:17:32.335Z,79.78
2019-01-12T20:20:00.305Z,79.73
2019-01-12T20:22:28.274Z,79.33
2019-01-12T20:24:55.913Z,79.80
2019-01-12T20:27:23.807Z,80.13
2019-01-12T20:29:51.778Z,79.14
2019-01-12T20:32:19.751Z,78.95
2019-01-12T20:34:47.712Z,78.87
2019-01-12T20:37:15.701Z,78.99
2019-01-12T20:39:43.333Z,79.04
2019-01-12T20:42:11.317Z,79.03
2019-01-12T20:44:38.955Z,80.01
2019-01-12T20:47:06.573Z,79.79
2019-01-12T20:49:34.510Z,79.62
2019-01-12T20:52:02.483Z,80.01
2019-01-12T20:54:30.447Z,80.02
2019-01-12T20:56:58.421Z,79.48
2019-01-12T20:59:28.314Z,79.83
2019-01-12T21:01:55.686Z,79.89
2019-01-12T21:04:23.325Z,79.49
2019-01-12T21:06:51.213Z,79.46
2019-01-12T21:09:19.196Z,79.51
2019-01-12T21:11:46.820Z,79.21
2019-01-12T21:14:14.711Z,79.90
2019-01-12T21:16:42.686Z,80.50
2019-01-12T21:19:10.654Z,80.62
2019-01-12T21:21:38.269Z,80.83
2019-01-12T21:24:06.189Z,81.40
2019-01-12T21:26:34.151Z,81.12
2019-01-12T21:29:02.122Z,80.60
2019-01-12T21:31:30.100Z,80.04
2019-01-12T21:33:57.718Z,80.25
2019-01-12T21:36:25.621Z,80.30
2019-01-12T21:38:53.239Z,80.46
2019-01-12T21:41:21.154Z,80.66
2019-01-12T21:43:49.121Z,80.40
2019-01-12T21:46:16.760Z,80.89
2019-01-12T21:48:44.378Z,80.90
2019-01-12T21:51:12.312Z,81.14
2019-01-12T21:53:40.291Z,80.94
2019-01-12T21:56:07.920Z,80.71
2019-01-12T21:58:35.540Z,80.88
2019-01-12T22:01:03.188Z,80.57
2019-01-12T22:03:31.153Z,80.32
2019-01-12T22:05:59.108Z,79.90
2019-01-12T22:08:27.080Z,80.51
2019-01-12T22:10:55.051Z,80.25
2019-01-12T22:13:22.668Z,80.07
2019-01-12T22:15:50.297Z,80.31
2019-01-12T22:18:18.237Z,80.45
2019-01-12T22:20:46.207Z,79.88
2019-01-12T22:23:13.823Z,80.14
2019-01-12T22:25:41.742Z,79.79
2019-01-12T22:28:09.686Z,79.81
2019-01-12T22:30:37.580Z,79.80
2019-01-12T22:33:05.854Z,80.02
2019-01-12T22:35:33.821Z,80.08
2019-01-12T22:38:01.792Z,80.66
2019-01-12T22:40:29.757Z,80.78
2019-01-12T22:42:57.730Z,81.10
2019-01-12T22:45:25.698Z,81.62
2019-01-12T22:47:53.319Z,82.05
2019-01-12T22:50:20.951Z,81.71
2019-01-12T22:52:48.572Z,82.24
2019-01-12T22:55:16.457Z,82.28
2019-01-12T22:57:44.077Z,82.29
2019-01-12T23:00:11.706Z,81.90
2019-01-12T23:02:39.643Z,82.27
2019-01-12T23:05:07.268Z,82.29
2019-01-12T23:07:35.172Z,82.23
2019-01-12T23:10:03.143Z,82.56
2019-01-12T23:12:31.113Z,82.82
2019-01-12T23:14:59.081Z,82.56
2019-01-12T23:17:27.075Z,82.81
2019-01-12T23:19:54.701Z,83.14
2019-01-12T23:22:22.339Z,83.66
2019-01-12T23:24:49.956Z,83.78
2019-01-12T23:27:17.904Z,84.52
2019-01-12T23:29:45.524Z,84.50
2019-01-12T23:32:13.439Z,84.96
2019-01-12T23:34:41.067Z,85.77
2019-01-12T23:37:08.966Z,85.87
2019-01-12T23:39:36.938Z,85.39
2019-01-12T23:42:04.906Z,85.21
2019-01-12T23:44:32.891Z,85.08
2019-01-12T23:47:00.517Z,84.47
2019-01-12T23:49:28.402Z,85.25
2019-01-12T23:51:56.103Z,85.20
2019-01-12T23:54:23.722Z,85.27
2019-01-12T23:56:51.699Z,84.64
2019-01-12T23:59:19.667Z,84.48
